Schedule Details


Flight Number: CTN391
Departure: Malpensa (LIMC) at 20:00
Arrival: Franjo Tudman (LDZA) at 21:30
Route: VAKON Q702 CHI L614 PUL P11 CRE W45 KULEN M986 KOTOR

Weather Information
LIMC 221620Z 35005KT 9999 BKN065 17/11 Q1017 NOSIG
LDZA 221630Z VRB02KT CAVOK 18/12 Q1016 NOSIG
Schedule Frequency

Route Map